Decoded Metar for LFKC (CALVI in CORSE ISL.) (IATA:CLY) | Meteo·Mobile Aviation Weather
aviador You're here:

LFKC Decoded Metar

CALVI in CORSE ISL.
Report Time2018-08-21 16:00:00
UTC Time2018-08-21 16:07:10
Flight Rules vfr VFR
Wind020° at 11 kt
W.Decomp.*RWY 36: 10.4 kt HW 3.6 kt RCW
W.Rank020° ranks 12
Current wind is above 020° avg. (8.5)
Visibility9999 m
Phenomena:N/A
Clouds:N/A
Expected CloudBase > 6,000 ft AGL from Temp-Dew spread
CeilingNone
Temp33°C (ISA +18)
Dew Point18°C (41% RH)
Heat Index34.0°C
AAT31.8°C
QNH1012 hPa
Density Alt2,592 ft
Elevation190 ft
Report Wrong Elevation
Raw Report
METAR LFKC 211600Z AUTO 02011KT 340V040 CAVOK 33/18 Q1012 NOSIG=

Extra information for LFKC:More info

Metar Taf Metar & Taf Last 4 Metars F.Rules Stats Wind Profile Meteogram Temp Stats Airport Information Weather charts Add Link Nearby VenuesMetar ALERT Operation Metar Decoded Social comments